createdAt,value
2023-05-17T00:00:59.638Z,3.63
2023-05-17T00:03:44.953Z,4.93
2023-05-17T00:06:31.871Z,3.65
2023-05-17T00:09:17.340Z,3.72
2023-05-17T00:12:03.285Z,5.00
2023-05-17T00:14:48.614Z,3.38
2023-05-17T00:17:33.901Z,4.03
2023-05-17T00:20:19.425Z,3.85
2023-05-17T00:23:04.822Z,3.67
2023-05-17T00:25:50.127Z,3.70
2023-05-17T00:28:35.559Z,4.05
2023-05-17T00:31:21.008Z,3.67
2023-05-17T00:34:06.399Z,3.70
2023-05-17T00:36:51.634Z,4.15
2023-05-17T00:39:37.022Z,3.95
2023-05-17T00:42:22.904Z,4.28
2023-05-17T00:45:08.635Z,3.60
2023-05-17T00:47:54.263Z,4.50
2023-05-17T00:50:40.072Z,4.07
2023-05-17T00:53:26.277Z,4.20
2023-05-17T00:56:11.922Z,4.20
2023-05-17T00:58:57.589Z,4.32
2023-05-17T01:01:44.012Z,3.83
2023-05-17T01:04:31.362Z,4.43
2023-05-17T01:07:18.748Z,4.07
2023-05-17T01:10:06.934Z,3.78
2023-05-17T01:13:18.448Z,3.92
2023-05-17T01:16:18.746Z,3.88
2023-05-17T01:19:41.544Z,3.55
2023-05-17T01:22:33.220Z,4.97
2023-05-17T01:25:24.860Z,4.07
2023-05-17T01:28:12.088Z,3.80
2023-05-17T01:31:00.591Z,4.40
2023-05-17T01:33:46.708Z,4.25
2023-05-17T01:36:32.092Z,3.17
2023-05-17T01:39:17.593Z,4.05
2023-05-17T01:42:11.241Z,3.85
2023-05-17T01:45:02.635Z,3.65
2023-05-17T01:47:48.776Z,4.20
2023-05-17T01:50:36.221Z,3.72
2023-05-17T01:53:30.336Z,4.80
2023-05-17T01:56:32.890Z,4.40
2023-05-17T01:59:24.181Z,4.68
2023-05-17T02:02:10.030Z,4.67
2023-05-17T02:04:55.684Z,4.05
2023-05-17T02:07:41.633Z,3.95
2023-05-17T02:10:26.980Z,3.92
2023-05-17T02:13:13.009Z,3.72
2023-05-17T02:16:02.115Z,4.30
2023-05-17T02:18:47.851Z,3.63
2023-05-17T02:21:33.156Z,3.53
2023-05-17T02:24:18.798Z,3.47
2023-05-17T02:27:04.660Z,3.42
2023-05-17T02:29:50.562Z,3.22
2023-05-17T02:32:36.020Z,3.13
2023-05-17T02:35:22.093Z,3.53
2023-05-17T02:38:09.556Z,3.17
2023-05-17T02:40:54.769Z,3.00
2023-05-17T02:43:40.226Z,3.58
2023-05-17T02:46:26.288Z,2.92
2023-05-17T02:49:11.657Z,3.13
2023-05-17T02:51:57.199Z,3.78
2023-05-17T02:54:45.442Z,3.70
2023-05-17T02:57:30.950Z,3.25
2023-05-17T03:00:16.865Z,3.45
2023-05-17T03:03:02.848Z,3.33
2023-05-17T03:05:49.172Z,3.28
2023-05-17T03:08:34.843Z,3.97
2023-05-17T03:11:21.478Z,3.70
2023-05-17T03:14:07.053Z,3.97
2023-05-17T03:16:52.365Z,3.38
2023-05-17T03:19:38.795Z,3.92
2023-05-17T03:22:24.260Z,3.67
2023-05-17T03:25:10.945Z,3.40
2023-05-17T03:27:56.544Z,3.22
2023-05-17T03:30:42.296Z,3.70
2023-05-17T03:33:28.475Z,3.75
2023-05-17T03:36:14.325Z,3.55
2023-05-17T03:38:59.704Z,3.72
2023-05-17T03:41:45.701Z,3.30
2023-05-17T03:44:32.219Z,3.42
2023-05-17T03:47:17.583Z,3.13
2023-05-17T03:50:03.765Z,3.45
2023-05-17T03:52:49.428Z,3.33
2023-05-17T03:55:34.856Z,3.13
2023-05-17T03:58:20.298Z,3.25
2023-05-17T04:01:05.886Z,3.30
2023-05-17T04:03:52.590Z,3.10
2023-05-17T04:06:39.998Z,3.30
2023-05-17T04:09:25.867Z,2.60
2023-05-17T04:12:12.141Z,4.03
2023-05-17T04:14:58.423Z,3.08
2023-05-17T04:17:44.543Z,3.00
2023-05-17T04:20:31.143Z,3.63
2023-05-17T04:23:16.812Z,3.30
2023-05-17T04:26:04.264Z,3.40
2023-05-17T04:28:52.013Z,3.58
2023-05-17T04:31:37.666Z,3.15
2023-05-17T04:34:25.035Z,3.25
2023-05-17T04:37:13.078Z,3.38
2023-05-17T04:39:59.278Z,3.13
2023-05-17T04:42:47.736Z,3.95
2023-05-17T04:45:33.974Z,3.17
2023-05-17T04:48:20.839Z,3.28
2023-05-17T04:51:06.491Z,3.05
2023-05-17T04:53:51.944Z,3.10
2023-05-17T04:56:37.536Z,3.15
2023-05-17T04:59:27.710Z,2.88
2023-05-17T05:02:14.283Z,2.90
2023-05-17T05:05:00.726Z,3.10
2023-05-17T05:07:46.471Z,3.65
2023-05-17T05:10:32.497Z,3.35
2023-05-17T05:13:18.049Z,3.33
2023-05-17T05:16:04.185Z,2.95
2023-05-17T05:18:50.129Z,3.10
2023-05-17T05:21:35.897Z,2.88
2023-05-17T05:24:21.691Z,3.17
2023-05-17T05:27:07.337Z,2.50
2023-05-17T05:29:55.530Z,2.70
2023-05-17T05:32:44.152Z,2.80
2023-05-17T05:35:30.986Z,2.88
2023-05-17T05:38:18.260Z,2.40
2023-05-17T05:41:04.165Z,2.85
2023-05-17T05:43:49.435Z,2.72
2023-05-17T05:46:34.875Z,3.10
2023-05-17T05:49:22.710Z,3.20
2023-05-17T05:52:08.234Z,2.90
2023-05-17T05:54:55.643Z,3.10
2023-05-17T05:57:41.414Z,2.85
2023-05-17T06:00:27.233Z,3.15
2023-05-17T06:03:12.872Z,3.22
2023-05-17T06:05:58.537Z,2.65
2023-05-17T06:08:47.196Z,3.08
2023-05-17T06:11:33.168Z,2.75
2023-05-17T06:14:18.678Z,3.88
2023-05-17T06:17:04.621Z,4.10
2023-05-17T06:19:50.100Z,4.03
2023-05-17T06:22:35.647Z,5.15
2023-05-17T06:25:21.101Z,4.65
2023-05-17T06:28:09.258Z,5.78
2023-05-17T06:30:54.749Z,11.32
2023-05-17T06:33:40.231Z,9.15
2023-05-17T06:36:25.899Z,7.47
2023-05-17T06:39:11.638Z,6.25
2023-05-17T06:41:56.873Z,5.25
2023-05-17T06:44:42.368Z,4.10
2023-05-17T06:47:27.895Z,4.53
2023-05-17T06:50:13.395Z,6.78
2023-05-17T06:52:58.869Z,6.63
2023-05-17T06:55:44.486Z,4.93
2023-05-17T06:58:30.207Z,3.78
2023-05-17T07:01:15.809Z,5.57
2023-05-17T07:04:01.785Z,5.38
2023-05-17T07:06:48.007Z,4.40
2023-05-17T07:09:33.613Z,4.40
2023-05-17T07:12:19.313Z,4.22
2023-05-17T07:15:05.202Z,4.03
2023-05-17T07:17:51.024Z,3.22
2023-05-17T07:20:36.311Z,3.47
2023-05-17T07:23:21.541Z,3.15
2023-05-17T07:26:06.985Z,3.40
2023-05-17T07:28:52.862Z,3.38
2023-05-17T07:31:38.534Z,3.50
2023-05-17T07:34:24.009Z,2.95
2023-05-17T07:37:09.389Z,3.92
2023-05-17T07:39:54.952Z,3.20
2023-05-17T07:42:40.238Z,2.97
2023-05-17T07:45:26.038Z,3.20
2023-05-17T07:48:11.598Z,3.75
2023-05-17T07:50:57.594Z,3.63
2023-05-17T07:53:43.480Z,3.05
2023-05-17T07:56:29.640Z,3.15
2023-05-17T07:59:14.838Z,3.63
2023-05-17T08:02:00.542Z,3.70
2023-05-17T08:04:46.148Z,3.10
2023-05-17T08:07:31.869Z,3.08
2023-05-17T08:10:17.105Z,3.15
2023-05-17T08:13:03.556Z,3.45
2023-05-17T08:15:51.567Z,3.40
2023-05-17T08:18:37.642Z,3.58
2023-05-17T08:21:23.125Z,4.85
2023-05-17T08:24:11.746Z,3.20
2023-05-17T08:26:57.236Z,3.42
2023-05-17T08:29:42.974Z,3.10
2023-05-17T08:32:29.309Z,2.95
2023-05-17T08:35:14.664Z,3.15
2023-05-17T08:37:59.990Z,3.00
2023-05-17T08:40:53.325Z,2.95
2023-05-17T08:43:39.845Z,2.97
2023-05-17T08:46:26.830Z,3.90
2023-05-17T08:49:15.951Z,2.80
2023-05-17T08:52:09.785Z,2.40
2023-05-17T08:54:55.791Z,2.92
2023-05-17T08:57:42.462Z,2.50
2023-05-17T09:00:28.849Z,3.17
2023-05-17T09:03:18.341Z,2.90
2023-05-17T09:06:04.872Z,3.08
2023-05-17T09:08:58.535Z,2.58
2023-05-17T09:11:44.582Z,2.90
2023-05-17T09:14:37.269Z,2.70
2023-05-17T09:17:23.007Z,2.90
2023-05-17T09:20:10.256Z,2.70
2023-05-17T09:22:55.739Z,2.90
2023-05-17T09:25:49.042Z,2.88
2023-05-17T09:28:42.328Z,3.08
2023-05-17T09:31:27.789Z,2.42
2023-05-17T09:34:18.550Z,2.53
2023-05-17T09:37:05.418Z,2.70
2023-05-17T09:39:57.576Z,2.92
2023-05-17T09:42:48.089Z,2.75
2023-05-17T09:45:34.067Z,3.10
2023-05-17T09:48:19.568Z,2.72
2023-05-17T09:51:06.201Z,3.45
2023-05-17T09:53:54.404Z,3.13
2023-05-17T09:56:41.156Z,2.40
2023-05-17T09:59:29.847Z,2.35
2023-05-17T10:02:22.550Z,2.65
2023-05-17T10:05:12.442Z,2.72
2023-05-17T10:07:57.789Z,2.42
2023-05-17T10:10:44.053Z,2.72
2023-05-17T10:13:36.053Z,2.85
2023-05-17T10:16:23.478Z,2.83
2023-05-17T10:19:11.542Z,2.90
2023-05-17T10:22:04.993Z,2.65
2023-05-17T10:25:04.488Z,3.10
2023-05-17T10:27:52.092Z,2.78
2023-05-17T10:30:38.729Z,2.70
2023-05-17T10:33:27.064Z,2.95
2023-05-17T10:36:17.321Z,2.55
2023-05-17T10:39:02.982Z,2.75
2023-05-17T10:41:53.080Z,2.88
2023-05-17T10:44:38.911Z,3.03
2023-05-17T10:47:32.723Z,2.45
2023-05-17T10:50:23.653Z,2.55
2023-05-17T10:53:12.877Z,4.47
2023-05-17T10:55:58.899Z,3.55
2023-05-17T10:58:44.626Z,2.40
2023-05-17T11:02:09.505Z,3.63
2023-05-17T11:04:56.627Z,2.40
2023-05-17T11:07:42.277Z,2.90
2023-05-17T11:10:28.666Z,2.58
2023-05-17T11:13:27.458Z,2.63
2023-05-17T11:16:18.937Z,2.60
2023-05-17T11:19:12.030Z,2.63
2023-05-17T11:21:57.612Z,3.38
2023-05-17T11:24:45.642Z,2.10
2023-05-17T11:27:36.834Z,2.47
2023-05-17T11:30:24.522Z,2.67
2023-05-17T11:33:21.284Z,2.60
2023-05-17T11:36:24.408Z,2.60
2023-05-17T11:39:14.892Z,2.83
2023-05-17T11:42:00.218Z,2.40
2023-05-17T11:44:45.995Z,2.60
2023-05-17T11:47:32.930Z,2.70
2023-05-17T11:50:18.324Z,2.53
2023-05-17T11:53:09.431Z,2.20
2023-05-17T11:55:57.588Z,2.60
2023-05-17T11:58:43.935Z,2.55
2023-05-17T12:01:41.921Z,2.40
2023-05-17T12:04:27.897Z,2.65
2023-05-17T12:07:15.858Z,3.42
2023-05-17T12:10:01.872Z,2.95
2023-05-17T12:12:47.813Z,2.70
2023-05-17T12:15:33.646Z,2.53
2023-05-17T12:18:20.861Z,2.20
2023-05-17T12:21:07.665Z,2.40
2023-05-17T12:23:53.577Z,2.33
2023-05-17T12:26:46.871Z,2.45
2023-05-17T12:29:33.271Z,2.28
2023-05-17T12:32:19.178Z,2.45
2023-05-17T12:35:05.396Z,3.03
2023-05-17T12:37:50.884Z,2.60
2023-05-17T12:40:36.337Z,2.70
2023-05-17T12:43:24.623Z,2.97
2023-05-17T12:46:13.897Z,2.88
2023-05-17T12:49:07.651Z,2.85
2023-05-17T12:51:52.942Z,2.80
2023-05-17T12:54:39.695Z,4.20
2023-05-17T12:57:25.244Z,3.45
2023-05-17T13:00:11.849Z,2.88
2023-05-17T13:02:59.175Z,3.38
2023-05-17T13:05:46.567Z,2.90
2023-05-17T13:08:32.688Z,2.85
2023-05-17T13:11:18.037Z,2.85
2023-05-17T13:14:03.265Z,2.40
2023-05-17T13:16:48.823Z,2.60
2023-05-17T13:19:36.114Z,2.08
2023-05-17T13:22:22.024Z,2.35
2023-05-17T13:25:07.519Z,2.55
2023-05-17T13:27:55.442Z,2.58
2023-05-17T13:30:40.720Z,1.73
2023-05-17T13:33:26.703Z,2.15
2023-05-17T13:36:13.092Z,2.25
2023-05-17T13:38:59.847Z,1.70
2023-05-17T13:41:45.669Z,2.13
2023-05-17T13:44:31.066Z,2.30
2023-05-17T13:47:16.654Z,2.30
2023-05-17T13:50:02.053Z,2.72
2023-05-17T13:52:47.544Z,2.40
2023-05-17T13:55:32.961Z,2.15
2023-05-17T13:58:18.366Z,1.95
2023-05-17T14:01:04.543Z,1.90
2023-05-17T14:03:50.163Z,2.40
2023-05-17T14:06:35.796Z,2.03
2023-05-17T14:09:21.656Z,2.05
2023-05-17T14:12:07.520Z,1.92
2023-05-17T14:14:53.138Z,1.90
2023-05-17T14:17:38.949Z,1.63
2023-05-17T14:20:24.663Z,2.42
2023-05-17T14:23:10.558Z,2.33
2023-05-17T14:25:57.896Z,1.77
2023-05-17T14:28:43.810Z,2.13
2023-05-17T14:31:30.212Z,2.00
2023-05-17T14:34:16.087Z,2.25
2023-05-17T14:37:01.697Z,2.20
2023-05-17T14:39:58.702Z,1.60
2023-05-17T14:42:51.450Z,2.00
2023-05-17T14:45:37.125Z,1.63
2023-05-17T14:48:22.957Z,1.90
2023-05-17T14:51:08.588Z,1.40
2023-05-17T14:53:54.314Z,2.50
2023-05-17T14:56:39.656Z,2.00
2023-05-17T14:59:25.784Z,2.03
2023-05-17T15:02:11.681Z,1.92
2023-05-17T15:04:58.474Z,2.17
2023-05-17T15:07:44.312Z,2.42
2023-05-17T15:10:29.990Z,1.85
2023-05-17T15:13:15.685Z,2.17
2023-05-17T15:16:02.623Z,2.50
2023-05-17T15:18:48.649Z,2.10
2023-05-17T15:21:35.650Z,1.80
2023-05-17T15:24:21.206Z,1.85
2023-05-17T15:27:08.092Z,1.98
2023-05-17T15:29:54.920Z,1.80
2023-05-17T15:32:42.001Z,1.83
2023-05-17T15:35:28.959Z,2.10
2023-05-17T15:38:14.672Z,2.40
2023-05-17T15:41:05.550Z,2.40
2023-05-17T15:43:51.001Z,1.83
2023-05-17T15:46:36.569Z,2.38
2023-05-17T15:49:21.889Z,2.80
2023-05-17T15:52:07.477Z,1.88
2023-05-17T15:54:54.126Z,2.08
2023-05-17T15:57:39.777Z,2.20
2023-05-17T16:00:25.579Z,2.25
2023-05-17T16:03:11.314Z,1.92
2023-05-17T16:05:56.975Z,2.05
2023-05-17T16:08:42.629Z,2.30
2023-05-17T16:11:28.138Z,2.55
2023-05-17T16:14:13.504Z,2.58
2023-05-17T16:16:58.779Z,2.30
2023-05-17T16:19:44.442Z,2.65
2023-05-17T16:22:29.899Z,2.65
2023-05-17T16:25:18.886Z,2.33
2023-05-17T16:28:04.146Z,2.78
2023-05-17T16:30:50.763Z,2.20
2023-05-17T16:33:43.486Z,2.58
2023-05-17T16:36:28.785Z,2.88
2023-05-17T16:39:14.408Z,2.70
2023-05-17T16:42:00.035Z,2.65
2023-05-17T16:44:45.301Z,2.80
2023-05-17T16:47:30.860Z,2.65
2023-05-17T16:50:16.893Z,2.50
2023-05-17T16:53:02.478Z,2.22
2023-05-17T16:55:48.318Z,2.78
2023-05-17T16:58:34.318Z,2.95
2023-05-17T17:01:19.802Z,2.50
2023-05-17T17:04:06.291Z,2.40
2023-05-17T17:06:54.711Z,2.28
2023-05-17T17:09:40.511Z,2.42
2023-05-17T17:12:26.361Z,2.67
2023-05-17T17:15:11.913Z,2.20
2023-05-17T17:17:57.283Z,3.00
2023-05-17T17:20:42.546Z,3.13
2023-05-17T17:23:27.934Z,2.22
2023-05-17T17:26:13.536Z,2.80
2023-05-17T17:29:08.207Z,2.67
2023-05-17T17:31:56.828Z,1.70
2023-05-17T17:34:42.322Z,2.47
2023-05-17T17:37:27.722Z,2.55
2023-05-17T17:40:13.731Z,2.75
2023-05-17T17:42:59.166Z,2.50
2023-05-17T17:45:46.306Z,3.28
2023-05-17T17:48:31.959Z,3.28
2023-05-17T17:51:17.423Z,3.00
2023-05-17T17:54:05.534Z,3.40
2023-05-17T17:56:50.953Z,3.30
2023-05-17T17:59:36.555Z,3.20
2023-05-17T18:02:21.978Z,3.05
2023-05-17T18:05:08.357Z,2.95
2023-05-17T18:07:53.783Z,2.88
2023-05-17T18:10:38.893Z,2.60
2023-05-17T18:13:24.427Z,2.95
2023-05-17T18:16:09.738Z,2.80
2023-05-17T18:18:55.421Z,3.92
2023-05-17T18:21:41.760Z,3.50
2023-05-17T18:24:27.699Z,3.15
2023-05-17T18:27:14.336Z,3.10
2023-05-17T18:29:59.769Z,2.90
2023-05-17T18:32:46.104Z,2.72
2023-05-17T18:35:31.569Z,2.92
2023-05-17T18:38:17.558Z,3.28
2023-05-17T18:41:03.231Z,3.38
2023-05-17T18:43:48.650Z,3.13
2023-05-17T18:46:34.198Z,2.88
2023-05-17T18:49:21.348Z,3.00
2023-05-17T18:52:07.353Z,4.13
2023-05-17T18:54:53.330Z,3.28
2023-05-17T18:57:40.403Z,3.10
2023-05-17T19:00:26.888Z,3.28
2023-05-17T19:03:13.520Z,3.20
2023-05-17T19:05:58.876Z,3.42
2023-05-17T19:08:44.122Z,3.03
2023-05-17T19:11:30.283Z,3.50
2023-05-17T19:14:15.788Z,3.65
2023-05-17T19:17:01.256Z,3.15
2023-05-17T19:19:46.731Z,3.40
2023-05-17T19:22:32.971Z,3.95
2023-05-17T19:25:20.310Z,3.45
2023-05-17T19:28:06.974Z,4.38
2023-05-17T19:30:53.997Z,3.58
2023-05-17T19:33:39.387Z,4.38
2023-05-17T19:36:26.147Z,4.55
2023-05-17T19:39:12.496Z,5.20
2023-05-17T19:41:58.033Z,6.10
2023-05-17T19:44:44.058Z,4.75
2023-05-17T19:47:29.570Z,5.45
2023-05-17T19:50:16.822Z,5.22
2023-05-17T19:53:02.279Z,4.60
2023-05-17T19:55:47.994Z,4.50
2023-05-17T19:58:35.255Z,4.05
2023-05-17T20:01:21.717Z,4.57
2023-05-17T20:04:07.205Z,4.57
2023-05-17T20:06:52.981Z,3.90
2023-05-17T20:09:38.925Z,3.95
2023-05-17T20:12:25.758Z,3.33
2023-05-17T20:15:11.762Z,3.70
2023-05-17T20:17:58.162Z,4.63
2023-05-17T20:20:44.453Z,4.38
2023-05-17T20:23:30.149Z,4.43
2023-05-17T20:26:17.153Z,4.70
2023-05-17T20:29:07.199Z,4.07
2023-05-17T20:31:52.884Z,4.38
2023-05-17T20:34:38.211Z,4.43
2023-05-17T20:37:23.605Z,4.07
2023-05-17T20:40:10.344Z,4.82
2023-05-17T20:42:56.546Z,4.45
2023-05-17T20:45:42.638Z,4.38
2023-05-17T20:48:29.132Z,4.72
2023-05-17T20:51:16.316Z,6.25
2023-05-17T20:54:03.870Z,4.82
2023-05-17T20:56:50.422Z,4.78
2023-05-17T20:59:36.997Z,4.30
2023-05-17T21:02:25.589Z,4.97
2023-05-17T21:05:11.475Z,4.85
2023-05-17T21:07:59.743Z,5.30
2023-05-17T21:10:46.973Z,5.43
2023-05-17T21:13:32.812Z,5.20
2023-05-17T21:16:18.552Z,5.07
2023-05-17T21:19:04.405Z,5.10
2023-05-17T21:21:49.684Z,4.82
2023-05-17T21:24:35.091Z,4.93
2023-05-17T21:27:20.349Z,4.45
2023-05-17T21:30:06.461Z,4.65
2023-05-17T21:32:52.107Z,4.70
2023-05-17T21:35:37.308Z,5.40
2023-05-17T21:38:25.677Z,4.88
2023-05-17T21:41:11.365Z,4.85
2023-05-17T21:43:57.129Z,5.13
2023-05-17T21:46:43.131Z,5.43
2023-05-17T21:49:28.546Z,4.82
2023-05-17T21:52:14.432Z,5.00
2023-05-17T21:55:00.398Z,4.68
2023-05-17T21:57:47.087Z,5.05
2023-05-17T22:00:32.737Z,4.70
2023-05-17T22:03:18.116Z,5.40
2023-05-17T22:06:03.726Z,5.22
2023-05-17T22:08:49.263Z,4.93
2023-05-17T22:11:38.237Z,4.72
2023-05-17T22:14:25.679Z,5.68
2023-05-17T22:17:11.075Z,5.00
2023-05-17T22:20:03.173Z,4.50
2023-05-17T22:22:48.424Z,5.10
2023-05-17T22:25:33.928Z,4.70
2023-05-17T22:28:19.159Z,5.22
2023-05-17T22:31:07.590Z,5.75
2023-05-17T22:33:53.935Z,6.53
2023-05-17T22:36:42.188Z,6.18
2023-05-17T22:39:27.472Z,6.38
2023-05-17T22:42:12.748Z,4.60
2023-05-17T22:44:58.056Z,5.35
2023-05-17T22:47:43.649Z,4.93
2023-05-17T22:50:30.634Z,6.03
2023-05-17T22:53:18.424Z,5.68
2023-05-17T22:56:03.613Z,6.40
2023-05-17T22:58:48.949Z,7.07
2023-05-17T23:01:34.157Z,8.25
2023-05-17T23:04:19.474Z,7.65
2023-05-17T23:07:04.907Z,9.02
2023-05-17T23:09:50.659Z,9.00
2023-05-17T23:12:37.211Z,11.95
2023-05-17T23:15:22.405Z,14.45
2023-05-17T23:18:09.097Z,15.10
2023-05-17T23:20:54.451Z,15.85
2023-05-17T23:23:40.598Z,15.57
2023-05-17T23:26:28.385Z,15.38
2023-05-17T23:29:13.660Z,15.35
2023-05-17T23:31:59.107Z,14.93
2023-05-17T23:34:45.484Z,16.48
2023-05-17T23:37:32.254Z,14.73
2023-05-17T23:40:17.663Z,15.38
2023-05-17T23:43:05.894Z,14.70
2023-05-17T23:45:51.993Z,14.70
2023-05-17T23:48:37.490Z,15.40
2023-05-17T23:51:23.024Z,15.75
2023-05-17T23:54:08.419Z,15.77
2023-05-17T23:56:53.868Z,15.50
2023-05-17T23:59:39.358Z,15.70
